Time;durP1;ratioP1;P1;durP2;ratioP2;P2;SDS_P1;SDS_P2;PMS_P1;PMS_P2;Temp;Humidity;BMP_temperature;BMP_pressure;BME280_temperature;BME280_humidity;BME280_pressure;Samples;Min_cycle;Max_cycle;Signal;HPM_P1;HPM_P2
2022/08/24 00:02:06;;;;;;;4.70;4.30;;;21.00;99.90;;;;;;5071649;28;20285;-64
2022/08/24 00:04:32;;;;;;;4.78;4.30;;;20.90;99.90;;;;;;5070355;28;20206;-65
2022/08/24 00:06:59;;;;;;;6.60;6.20;;;20.90;99.90;;;;;;5071371;28;20188;-65
2022/08/24 00:09:25;;;;;;;6.93;6.38;;;20.90;99.90;;;;;;5070357;28;20178;-64
2022/08/24 00:11:50;;;;;;;4.22;3.92;;;20.80;99.90;;;;;;5071459;28;20181;-65
2022/08/24 00:14:17;;;;;;;4.82;4.43;;;20.70;99.90;;;;;;5071034;28;20204;-65
2022/08/24 00:16:42;;;;;;;4.17;3.90;;;20.60;99.90;;;;;;5071153;28;20641;-65
2022/08/24 00:19:09;;;;;;;5.00;4.40;;;20.60;99.90;;;;;;5071243;28;20202;-65
2022/08/24 00:21:35;;;;;;;4.78;4.47;;;20.60;99.90;;;;;;5071172;28;20526;-63
2022/08/24 00:24:01;;;;;;;4.70;4.40;;;20.50;99.90;;;;;;5070985;28;20236;-64
2022/08/24 00:26:27;;;;;;;4.73;4.33;;;20.50;99.90;;;;;;5070933;28;20272;-65
2022/08/24 00:28:52;;;;;;;10.40;4.90;;;20.50;99.90;;;;;;5071184;28;20546;-64
2022/08/24 00:31:18;;;;;;;4.40;4.10;;;20.40;99.90;;;;;;5053287;28;20602;-64
2022/08/24 00:33:44;;;;;;;4.77;4.37;;;20.40;99.90;;;;;;5070878;28;20174;-65
2022/08/24 00:36:09;;;;;;;4.53;4.23;;;20.30;99.90;;;;;;5071159;28;20205;-65
2022/08/24 00:38:36;;;;;;;5.60;5.20;;;20.30;99.90;;;;;;5070656;28;20186;-65
2022/08/24 00:41:03;;;;;;;5.07;4.57;;;20.20;99.90;;;;;;5071271;28;20162;-65
2022/08/24 00:43:28;;;;;;;6.17;5.63;;;20.20;99.90;;;;;;5070510;28;20179;-64
2022/08/24 00:46:23;;;;;;;6.63;4.68;;;20.10;99.90;;;;;;5071029;28;20190;-64
2022/08/24 00:49:00;;;;;;;7.03;5.18;;;20.10;99.90;;;;;;5070258;28;20661;-64
2022/08/24 00:51:32;;;;;;;6.13;5.60;;;20.10;99.90;;;;;;5070863;28;20264;-65
2022/08/24 00:54:03;;;;;;;6.93;5.32;;;20.10;99.90;;;;;;5070817;28;20193;-65
2022/08/24 00:56:36;;;;;;;7.17;4.80;;;20.10;99.90;;;;;;5070709;28;20198;-65
2022/08/24 00:59:08;;;;;;;5.22;4.78;;;20.10;99.90;;;;;;5070731;28;20690;-64
2022/08/24 01:01:34;;;;;;;5.70;4.30;;;20.00;99.90;;;;;;5071024;28;20220;-64
2022/08/24 01:04:01;;;;;;;11.00;5.13;;;20.00;99.90;;;;;;5070424;28;20304;-65
2022/08/24 01:06:27;;;;;;;4.83;4.43;;;20.00;99.90;;;;;;5070634;28;20695;-63
2022/08/24 01:08:52;;;;;;;5.03;4.53;;;20.00;99.90;;;;;;5070794;28;20251;-64
2022/08/24 01:11:21;;;;;;;7.90;4.90;;;20.10;99.90;;;;;;5070717;28;20663;-64
2022/08/24 01:13:49;;;;;;;8.27;5.40;;;20.10;99.90;;;;;;5070697;28;20185;-64
2022/08/24 01:18:48;;;;;;;5.55;5.18;;;20.10;99.90;;;;;;5070551;28;20193;-65
2022/08/24 01:19:06;;;;;;;9.07;5.17;;;20.10;99.90;;;;;;5070702;28;20216;-65
2022/08/24 01:21:55;;;;;;;6.93;4.70;;;20.10;99.90;;;;;;5074139;28;20281;-65
2022/08/24 01:24:20;;;;;;;7.30;4.57;;;20.10;99.90;;;;;;5073938;28;20190;-65
2022/08/24 01:26:48;;;;;;;6.80;4.53;;;20.10;99.90;;;;;;5073749;28;20670;-65
2022/08/24 01:29:26;;;;;;;5.37;4.87;;;20.10;99.90;;;;;;5074365;28;20204;-65
2022/08/24 01:31:52;;;;;;;8.05;5.38;;;20.10;99.90;;;;;;5073979;28;20249;-65
2022/08/24 01:34:20;;;;;;;5.95;5.43;;;20.20;99.90;;;;;;5074822;28;20210;-64
2022/08/24 01:36:53;;;;;;;8.57;6.32;;;20.20;99.90;;;;;;5073971;28;20229;-64
2022/08/24 01:39:24;;;;;;;6.60;4.43;;;20.10;99.90;;;;;;5074206;28;20238;-65
2022/08/24 01:41:50;;;;;;;5.13;4.65;;;20.00;99.90;;;;;;5073885;28;20239;-64
2022/08/24 01:44:17;;;;;;;4.83;4.30;;;19.90;99.90;;;;;;5073581;28;20170;-64
2022/08/24 01:46:47;;;;;;;5.30;4.50;;;19.80;99.90;;;;;;5073509;28;20202;-64
2022/08/24 01:49:14;;;;;;;6.55;6.05;;;19.80;99.90;;;;;;5073025;28;20185;-65
2022/08/24 01:51:41;;;;;;;6.13;5.67;;;19.70;99.90;;;;;;5073407;28;20170;-64
2022/08/24 01:54:07;;;;;;;6.50;5.10;;;19.60;99.90;;;;;;5073318;28;20185;-65
2022/08/24 01:56:33;;;;;;;5.53;5.13;;;19.60;99.90;;;;;;5073283;28;20206;-65
2022/08/24 01:58:59;;;;;;;8.20;6.30;;;19.50;99.90;;;;;;5073599;28;20224;-64
2022/08/24 02:01:27;;;;;;;6.17;5.40;;;19.40;99.90;;;;;;5073352;28;20201;-64
2022/08/24 02:03:54;;;;;;;6.23;5.80;;;19.30;99.90;;;;;;5072973;28;20192;-65
2022/08/24 02:06:19;;;;;;;6.57;6.03;;;19.30;99.90;;;;;;5073450;28;20194;-65
2022/08/24 02:08:45;;;;;;;5.30;4.80;;;19.40;99.90;;;;;;5072937;28;20597;-65
2022/08/24 02:11:11;;;;;;;8.40;4.70;;;19.30;99.90;;;;;;5073136;28;20711;-64
2022/08/24 02:13:38;;;;;;;5.47;5.00;;;19.20;99.90;;;;;;5072950;28;20169;-65
2022/08/24 02:16:05;;;;;;;6.27;5.77;;;19.20;99.90;;;;;;5073366;28;20797;-67
2022/08/24 02:18:32;;;;;;;7.73;5.17;;;19.10;99.90;;;;;;5066453;28;20231;-68
2022/08/24 02:20:59;;;;;;;7.43;5.53;;;19.00;99.90;;;;;;5094469;28;20216;-68
2022/08/24 02:23:24;;;;;;;6.27;5.40;;;19.00;99.90;;;;;;5073713;28;20194;-67
2022/08/24 02:25:51;;;;;;;8.17;4.87;;;19.00;99.90;;;;;;5073577;28;20247;-69
2022/08/24 02:28:17;;;;;;;5.97;5.40;;;19.00;99.90;;;;;;5074115;28;20651;-67
2022/08/24 02:30:43;;;;;;;7.20;5.07;;;19.00;99.90;;;;;;5072972;28;20167;-66
2022/08/24 02:33:09;;;;;;;7.57;5.60;;;18.90;99.90;;;;;;5073489;28;20658;-67
2022/08/24 02:35:35;;;;;;;7.87;5.40;;;19.00;99.90;;;;;;5073440;28;20250;-66
2022/08/24 02:38:01;;;;;;;7.97;5.27;;;19.00;99.90;;;;;;5073112;28;20225;-68
2022/08/24 02:40:27;;;;;;;7.30;5.67;;;19.00;99.90;;;;;;5073195;28;20244;-68
2022/08/24 02:42:53;;;;;;;5.77;5.10;;;19.00;99.90;;;;;;5073352;28;20667;-66
2022/08/24 02:45:18;;;;;;;6.10;5.50;;;18.90;99.90;;;;;;5073039;28;20515;-70
2022/08/24 02:47:45;;;;;;;5.57;5.03;;;18.90;99.90;;;;;;5073084;28;20715;-67
2022/08/24 02:50:13;;;;;;;6.63;5.00;;;18.90;99.90;;;;;;5073206;28;20187;-68
2022/08/24 02:52:40;;;;;;;8.03;5.60;;;18.80;99.90;;;;;;5073724;28;20631;-67
2022/08/24 02:55:08;;;;;;;5.60;5.20;;;18.90;99.90;;;;;;5072775;28;20193;-65
2022/08/24 02:57:34;;;;;;;5.40;5.00;;;18.80;99.90;;;;;;5073104;28;20206;-68
2022/08/24 03:00:00;;;;;;;6.07;5.60;;;18.90;99.90;;;;;;5072917;28;20216;-66
2022/08/24 03:02:26;;;;;;;7.77;5.00;;;18.90;99.90;;;;;;5073370;28;20261;-67
2022/08/24 03:04:52;;;;;;;9.93;7.13;;;19.00;99.90;;;;;;5072429;28;20205;-68
2022/08/24 03:07:18;;;;;;;9.93;7.10;;;18.90;99.90;;;;;;5073150;28;20194;-67
2022/08/24 03:09:44;;;;;;;6.87;6.30;;;18.90;99.90;;;;;;5072789;28;20225;-69
2022/08/24 03:12:10;;;;;;;8.43;6.97;;;18.90;99.90;;;;;;5073115;28;20186;-67
2022/08/24 03:14:36;;;;;;;5.93;5.50;;;18.80;99.90;;;;;;5072465;28;20186;-65
2022/08/24 03:17:02;;;;;;;8.30;5.70;;;18.80;99.90;;;;;;5073121;28;20187;-67
2022/08/24 03:19:28;;;;;;;7.87;5.80;;;18.80;99.90;;;;;;5072303;28;20209;-67
2022/08/24 03:21:56;;;;;;;7.63;6.47;;;18.70;99.90;;;;;;5072562;28;20532;-66
2022/08/24 03:24:22;;;;;;;10.27;6.50;;;18.70;99.90;;;;;;5072624;28;20202;-68
2022/08/24 03:26:48;;;;;;;6.93;6.10;;;18.70;99.90;;;;;;5072787;28;20644;-66
2022/08/24 03:29:14;;;;;;;7.47;6.73;;;18.60;99.90;;;;;;5072809;28;20247;-68
2022/08/24 03:31:40;;;;;;;7.33;6.63;;;18.50;99.90;;;;;;5072515;28;20178;-67
2022/08/24 03:34:06;;;;;;;7.87;7.27;;;18.40;99.90;;;;;;5072607;28;20467;-67
2022/08/24 03:36:32;;;;;;;7.17;6.67;;;18.30;99.90;;;;;;5072666;28;20570;-70
2022/08/24 03:38:57;;;;;;;9.70;8.03;;;18.30;99.90;;;;;;5072450;28;20209;-68
2022/08/24 03:41:23;;;;;;;11.07;8.00;;;18.30;99.90;;;;;;5072659;28;20174;-68
2022/08/24 03:43:49;;;;;;;8.87;8.07;;;18.30;99.90;;;;;;5071686;28;20185;-69
2022/08/24 03:46:19;;;;;;;8.37;5.90;;;18.30;99.90;;;;;;5072287;28;20198;-69
2022/08/24 03:48:45;;;;;;;9.97;7.20;;;18.20;99.90;;;;;;5071871;28;20178;-66
2022/08/24 03:51:13;;;;;;;7.17;6.57;;;18.20;99.90;;;;;;5072255;28;20538;-66
2022/08/24 03:53:40;;;;;;;7.93;7.30;;;18.20;99.90;;;;;;5072158;28;20201;-68
2022/08/24 03:56:06;;;;;;;8.13;7.57;;;18.20;99.90;;;;;;5071941;28;20190;-67
2022/08/24 03:58:34;;;;;;;8.43;7.93;;;18.20;99.90;;;;;;5072350;28;20193;-68
2022/08/24 04:01:00;;;;;;;8.83;8.10;;;18.20;99.90;;;;;;5071388;28;20248;-64
2022/08/24 04:03:27;;;;;;;10.60;8.40;;;18.10;99.90;;;;;;5071375;28;20514;-64
2022/08/24 04:05:52;;;;;;;7.53;6.93;;;18.00;99.90;;;;;;5071334;28;20209;-64
2022/08/24 04:08:19;;;;;;;7.33;5.97;;;18.00;99.90;;;;;;5071818;28;20174;-64
2022/08/24 04:10:47;;;;;;;6.97;6.37;;;18.00;99.90;;;;;;5071510;28;20182;-64
2022/08/24 04:13:12;;;;;;;8.70;6.93;;;18.00;99.90;;;;;;5051846;28;20566;-64
2022/08/24 04:15:40;;;;;;;10.33;6.33;;;18.00;99.90;;;;;;5051177;28;20179;-64
2022/08/24 04:18:05;;;;;;;7.20;6.17;;;18.00;99.90;;;;;;5070363;28;20185;-63
2022/08/24 04:20:38;;;;;;;6.70;6.20;;;18.00;99.90;;;;;;5070981;28;20228;-64
2022/08/24 04:23:06;;;;;;;7.77;7.07;;;18.00;99.90;;;;;;5071473;28;20202;-64
2022/08/24 04:25:38;;;;;;;6.80;6.33;;;17.90;99.90;;;;;;5071013;28;20181;-64
2022/08/24 04:28:05;;;;;;;8.40;7.70;;;18.00;99.90;;;;;;5071540;28;20185;-64
2022/08/24 04:30:31;;;;;;;8.53;7.83;;;18.00;99.90;;;;;;5071081;28;20182;-64
2022/08/24 04:32:57;;;;;;;8.93;7.50;;;17.90;99.90;;;;;;5071013;28;20178;-64
2022/08/24 04:35:22;;;;;;;8.43;7.57;;;17.90;99.90;;;;;;5070920;28;20174;-63
2022/08/24 04:37:48;;;;;;;7.23;6.60;;;17.90;99.90;;;;;;5071185;28;20277;-64
2022/08/24 04:40:14;;;;;;;9.50;6.63;;;18.00;99.90;;;;;;5070867;28;20208;-63
2022/08/24 04:42:40;;;;;;;7.20;6.60;;;18.10;99.90;;;;;;5071011;28;20170;-64
2022/08/24 04:45:06;;;;;;;8.83;7.33;;;18.00;99.90;;;;;;5070637;28;20174;-63
2022/08/24 04:47:31;;;;;;;7.00;6.40;;;18.10;99.90;;;;;;5071647;28;20218;-63
2022/08/24 04:49:57;;;;;;;7.60;7.10;;;18.00;99.90;;;;;;5071000;28;20193;-63
2022/08/24 04:52:23;;;;;;;6.77;6.27;;;18.00;99.90;;;;;;5071116;28;20265;-63
2022/08/24 04:54:49;;;;;;;11.70;7.10;;;18.00;99.90;;;;;;5071491;28;20178;-64
2022/08/24 04:57:14;;;;;;;7.70;6.77;;;18.00;99.90;;;;;;5074785;28;20491;-62
2022/08/24 04:59:40;;;;;;;8.47;7.00;;;18.10;99.90;;;;;;5074877;28;20707;-63
2022/08/24 05:02:06;;;;;;;9.47;7.27;;;18.10;99.90;;;;;;5074805;28;20162;-62
2022/08/24 05:04:31;;;;;;;7.87;6.97;;;18.10;99.90;;;;;;5074108;28;20239;-62
2022/08/24 05:06:57;;;;;;;8.03;7.30;;;18.10;99.90;;;;;;5074677;28;20221;-63
2022/08/24 05:09:22;;;;;;;9.53;6.43;;;18.20;99.90;;;;;;5074678;28;20204;-62
2022/08/24 05:11:48;;;;;;;10.43;6.10;;;18.20;99.90;;;;;;5075029;28;20236;-63
2022/08/24 05:14:14;;;;;;;7.40;6.77;;;18.30;99.90;;;;;;5074054;28;20532;-63
2022/08/24 05:16:40;;;;;;;6.83;6.27;;;18.30;99.90;;;;;;5074352;28;20198;-64
2022/08/24 05:19:06;;;;;;;8.33;7.57;;;18.40;99.90;;;;;;5074112;28;20197;-63
2022/08/24 05:21:32;;;;;;;9.67;7.67;;;18.50;99.90;;;;;;5073890;28;20170;-63
2022/08/24 05:23:57;;;;;;;7.10;6.30;;;18.70;99.90;;;;;;5073839;28;20632;-63
2022/08/24 05:26:26;;;;;;;8.33;7.30;;;18.70;99.90;;;;;;5074375;28;20193;-63
2022/08/24 05:28:57;;;;;;;6.97;6.47;;;18.70;99.90;;;;;;5073850;28;20178;-64
2022/08/24 05:31:26;;;;;;;8.40;6.63;;;18.80;99.90;;;;;;5074105;28;20174;-64
2022/08/24 05:33:52;;;;;;;6.87;5.80;;;18.80;99.90;;;;;;5073843;28;20181;-63
2022/08/24 05:36:23;;;;;;;8.73;7.00;;;18.90;99.90;;;;;;5074084;28;20572;-63
2022/08/24 05:38:51;;;;;;;7.50;6.90;;;19.00;99.90;;;;;;5074282;28;20210;-64
2022/08/24 05:41:18;;;;;;;10.53;6.77;;;19.10;99.90;;;;;;5073791;28;20253;-64
2022/08/24 05:43:44;;;;;;;6.93;6.00;;;19.10;99.90;;;;;;5074050;28;20257;-64
2022/08/24 05:46:10;;;;;;;6.70;6.10;;;19.10;99.90;;;;;;5073956;28;20644;-63
2022/08/24 05:48:37;;;;;;;8.07;6.37;;;19.20;99.90;;;;;;5061434;28;20213;-64
2022/08/24 05:51:05;;;;;;;6.87;6.07;;;19.30;99.90;;;;;;5073654;28;20511;-66
2022/08/24 05:53:31;;;;;;;6.87;6.27;;;19.30;99.90;;;;;;5073157;28;20178;-64
2022/08/24 05:55:56;;;;;;;11.33;6.43;;;19.40;99.90;;;;;;5073848;28;20210;-64
2022/08/24 05:58:22;;;;;;;6.40;6.00;;;19.50;99.90;;;;;;5073455;28;20748;-63
2022/08/24 06:00:49;;;;;;;7.37;5.87;;;19.60;99.90;;;;;;5073156;28;20213;-64
2022/08/24 06:03:15;;;;;;;9.40;6.77;;;19.60;99.90;;;;;;5073556;28;20640;-64
2022/08/24 06:05:42;;;;;;;6.97;6.27;;;19.70;99.90;;;;;;5072700;28;20174;-64
2022/08/24 06:08:08;;;;;;;6.55;5.82;;;19.90;99.90;;;;;;5074003;28;20185;-64
2022/08/24 06:10:46;;;;;;;10.13;6.50;;;20.20;99.90;;;;;;5073380;28;20182;-64
2022/08/24 06:13:13;;;;;;;6.45;5.85;;;20.50;99.90;;;;;;5073359;28;20588;-64
2022/08/24 06:15:40;;;;;;;10.63;6.20;;;21.00;99.90;;;;;;5072569;28;20174;-64
2022/08/24 06:18:06;;;;;;;7.13;5.30;;;21.50;99.90;;;;;;5073382;28;20181;-64
2022/08/24 06:20:37;;;;;;;5.72;5.18;;;22.10;99.90;;;;;;5071899;28;20678;-64
2022/08/24 06:23:02;;;;;;;7.93;5.65;;;22.70;99.90;;;;;;5080415;28;20181;-64
2022/08/24 06:28:12;;;;;;;6.53;5.82;;;23.60;99.90;;;;;;5077128;28;20544;-64
2022/08/24 06:30:38;;;;;;;5.88;5.22;;;24.10;99.90;;;;;;5072538;28;20190;-65
2022/08/24 06:33:04;;;;;;;7.07;4.57;;;24.40;99.90;;;;;;5072827;28;20170;-65
2022/08/24 06:35:30;;;;;;;6.78;5.25;;;24.70;99.90;;;;;;5072310;28;20220;-65
2022/08/24 06:37:56;;;;;;;5.50;4.95;;;25.00;99.90;;;;;;5072682;28;20646;-65
2022/08/24 06:40:23;;;;;;;5.80;5.05;;;25.30;99.90;;;;;;5072776;28;20202;-64
2022/08/24 06:42:49;;;;;;;11.60;5.65;;;25.50;99.90;;;;;;5072384;28;20166;-64
2022/08/24 06:45:14;;;;;;;8.25;5.13;;;25.50;99.90;;;;;;5072017;28;20197;-65
2022/08/24 06:47:41;;;;;;;5.45;4.90;;;25.60;99.90;;;;;;5072402;28;20210;-65
2022/08/24 06:50:07;;;;;;;7.50;5.60;;;25.70;99.90;;;;;;5072525;28;20201;-64
2022/08/24 06:52:35;;;;;;;6.75;5.03;;;25.90;99.90;;;;;;5072593;28;20175;-64
2022/08/24 06:55:01;;;;;;;7.40;5.88;;;26.10;99.90;;;;;;5071988;28;20639;-64
2022/08/24 06:57:27;;;;;;;7.45;6.68;;;26.40;99.90;;;;;;5072093;28;20240;-64
2022/08/24 06:59:53;;;;;;;8.25;6.05;;;26.70;99.90;;;;;;5054555;28;20233;-64
2022/08/24 07:02:19;;;;;;;8.40;5.97;;;26.90;99.90;;;;;;5071329;28;20185;-64
2022/08/24 07:04:45;;;;;;;9.68;6.20;;;27.10;99.90;;;;;;5071820;28;20192;-65
2022/08/24 07:07:12;;;;;;;5.50;5.00;;;27.20;99.90;;;;;;5071911;28;20206;-64
2022/08/24 07:09:37;;;;;;;10.48;5.43;;;27.40;99.90;;;;;;5054034;28;20181;-64
2022/08/24 07:12:04;;;;;;;5.60;4.95;;;27.60;99.90;;;;;;5054065;28;20174;-64
2022/08/24 07:14:30;;;;;;;5.82;5.28;;;27.60;99.90;;;;;;5071769;28;20252;-64
2022/08/24 07:16:55;;;;;;;9.20;5.35;;;27.70;99.90;;;;;;5071343;28;20198;-64
2022/08/24 07:19:21;;;;;;;9.88;4.95;;;27.80;99.90;;;;;;5071908;28;20205;-64
2022/08/24 07:21:47;;;;;;;8.23;5.75;;;28.00;99.90;;;;;;5070187;28;20178;-64
2022/08/24 07:24:13;;;;;;;6.07;4.95;;;28.20;99.90;;;;;;5071718;28;20224;-65
2022/08/24 07:26:39;;;;;;;7.57;5.53;;;28.30;99.90;;;;;;5071446;28;20197;-65
2022/08/24 07:29:10;;;;;;;8.18;5.18;;;28.40;99.90;;;;;;5071804;28;20219;-65
2022/08/24 07:31:38;;;;;;;6.35;5.45;;;28.60;99.90;;;;;;5071434;28;20206;-64
2022/08/24 07:34:05;;;;;;;9.63;5.97;;;29.00;99.90;;;;;;5071680;28;20181;-64
2022/08/24 07:36:31;;;;;;;8.13;5.20;;;29.40;99.90;;;;;;5071415;28;20664;-65
2022/08/24 07:38:57;;;;;;;8.40;4.13;;;29.80;99.90;;;;;;5071415;28;20189;-64
2022/08/24 07:41:27;;;;;;;7.43;4.40;;;30.00;99.90;;;;;;5071606;28;20181;-64
2022/08/24 07:43:54;;;;;;;6.20;4.80;;;30.10;99.90;;;;;;5071407;28;20181;-64
2022/08/24 07:46:20;;;;;;;6.55;4.53;;;30.20;99.90;;;;;;5071357;28;20228;-64
2022/08/24 07:48:45;;;;;;;6.97;4.05;;;30.30;99.90;;;;;;5052430;28;20573;-65
2022/08/24 07:51:14;;;;;;;6.68;4.65;;;30.60;99.90;;;;;;5071380;28;20670;-65
2022/08/24 07:53:41;;;;;;;6.07;4.30;;;30.60;99.90;;;;;;5071084;28;20178;-64
2022/08/24 07:56:07;;;;;;;5.90;3.72;;;30.80;99.90;;;;;;5071240;28;20293;-64
2022/08/24 07:58:34;;;;;;;5.95;4.50;;;31.10;99.90;;;;;;5071311;28;20181;-64
2022/08/24 08:01:00;;;;;;;4.53;4.07;;;31.30;99.90;;;;;;5068943;28;20279;-65
2022/08/24 08:03:26;;;;;;;7.20;4.00;;;31.50;99.90;;;;;;5071316;28;20198;-65
2022/08/24 08:06:00;;;;;;;5.68;4.38;;;31.40;99.90;;;;;;5070919;28;20300;-65
2022/08/24 08:08:26;;;;;;;7.63;3.88;;;31.60;99.90;;;;;;5071514;28;20173;-64
2022/08/24 08:10:52;;;;;;;4.93;3.95;;;31.90;99.90;;;;;;5071053;28;20252;-65
2022/08/24 08:13:18;;;;;;;4.82;3.65;;;32.40;99.90;;;;;;5071379;28;20600;-64
2022/08/24 08:15:44;;;;;;;5.88;4.05;;;32.70;99.90;;;;;;5052535;28;20189;-65
2022/08/24 08:18:11;;;;;;;4.70;3.75;;;32.80;99.90;;;;;;5051372;28;20636;-65
2022/08/24 08:20:39;;;;;;;5.57;3.60;;;33.10;99.90;;;;;;5065419;28;20209;-64
2022/08/24 08:25:53;;;;;;;7.25;4.05;;;34.00;99.90;;;;;;5071128;28;20243;-65
2022/08/24 08:28:19;;;;;;;6.72;3.63;;;34.10;99.90;;;;;;5071105;28;20685;-64
2022/08/24 08:30:45;;;;;;;7.70;4.00;;;33.90;99.30;;;;;;5073741;28;20180;-65
2022/08/24 08:33:12;;;;;;;4.57;3.90;;;33.40;99.90;;;;;;5072622;28;20202;-65
2022/08/24 08:35:38;;;;;;;8.98;3.95;;;33.50;99.90;;;;;;5074754;28;20214;-64
2022/08/24 08:38:04;;;;;;;5.60;4.18;;;33.70;99.90;;;;;;5074933;28;20594;-64
2022/08/24 08:40:44;;;;;;;7.78;3.90;;;33.90;99.90;;;;;;5075116;28;20214;-65
2022/08/24 08:43:20;;;;;;;6.60;4.38;;;34.10;98.20;;;;;;5074732;28;20694;-64
2022/08/24 08:45:59;;;;;;;7.85;3.80;;;34.30;99.80;;;;;;5074824;28;20178;-64
2022/08/24 08:48:42;;;;;;;6.15;4.20;;;34.50;98.00;;;;;;5056743;28;20571;-64
2022/08/24 08:51:19;;;;;;;6.15;3.80;;;34.80;97.20;;;;;;5075207;28;20646;-64
2022/08/24 08:54:03;;;;;;;4.68;4.00;;;34.90;97.70;;;;;;5074263;28;20173;-64
2022/08/24 08:56:50;;;;;;;6.47;4.18;;;35.40;98.30;;;;;;5074623;28;20286;-64
2022/08/24 08:59:27;;;;;;;4.20;3.72;;;36.00;97.30;;;;;;5074255;28;20293;-65
2022/08/24 09:02:13;;;;;;;6.63;3.75;;;36.10;94.00;;;;;;5074400;28;20181;-65
2022/08/24 09:04:41;;;;;;;6.80;4.55;;;36.00;93.80;;;;;;5074338;28;20170;-65
2022/08/24 09:07:26;;;;;;;4.50;3.50;;;36.20;93.20;;;;;;5074487;28;20198;-64
2022/08/24 09:10:20;;;;;;;5.68;3.70;;;36.40;92.50;;;;;;5074194;28;20197;-64
2022/08/24 09:13:16;;;;;;;4.22;3.42;;;36.70;92.80;;;;;;5074293;28;20555;-65
2022/08/24 09:15:48;;;;;;;8.48;5.55;;;36.90;90.70;;;;;;5073786;28;20178;-65
2022/08/24 09:18:40;;;;;;;4.72;3.63;;;37.00;88.10;;;;;;5074757;28;20169;-65
2022/08/24 09:21:36;;;;;;;7.57;3.28;;;37.20;89.60;;;;;;5073114;28;20675;-65
2022/08/24 09:24:33;;;;;;;5.78;3.50;;;37.30;84.50;;;;;;5073937;28;20556;-65
2022/08/24 09:27:07;;;;;;;5.10;3.60;;;37.40;86.20;;;;;;5074165;28;20193;-64
2022/08/24 09:29:52;;;;;;;7.00;3.55;;;37.50;84.70;;;;;;5073451;28;20178;-65
2022/08/24 09:32:44;;;;;;;5.18;3.50;;;38.00;86.10;;;;;;5074579;28;20189;-64
2022/08/24 09:35:14;;;;;;;7.80;3.08;;;38.00;81.00;;;;;;5053825;28;20668;-65
2022/08/24 09:38:04;;;;;;;4.50;4.10;;;38.00;81.40;;;;;;5054314;28;20210;-65
2022/08/24 09:40:50;;;;;;;4.88;3.50;;;37.90;79.10;;;;;;5058010;28;20201;-64
2022/08/24 09:43:40;;;;;;;6.30;4.30;;;38.00;77.70;;;;;;5073890;28;20640;-64
2022/08/24 09:46:20;;;;;;;5.80;3.58;;;37.90;74.40;;;;;;5073583;28;20697;-65
2022/08/24 09:48:56;;;;;;;4.22;3.70;;;37.70;78.60;;;;;;5073835;28;20170;-64
2022/08/24 09:52:00;;;;;;;5.47;3.60;;;37.70;74.50;;;;;;5074025;28;20195;-65
2022/08/24 09:54:44;;;;;;;6.28;3.35;;;37.80;74.60;;;;;;5073443;28;20174;-63
2022/08/24 09:57:47;;;;;;;7.38;4.18;;;37.50;76.60;;;;;;5073605;28;20201;-65
2022/08/24 10:00:49;;;;;;;4.35;3.95;;;37.60;73.10;;;;;;5071416;28;20296;-65
2022/08/24 10:03:27;;;;;;;5.30;3.97;;;37.50;72.30;;;;;;5073045;28;20166;-65
2022/08/24 10:06:12;;;;;;;5.97;3.75;;;37.60;73.10;;;;;;5073486;28;20255;-64
2022/08/24 10:08:46;;;;;;;6.07;3.95;;;37.70;72.70;;;;;;5073127;28;20260;-65
2022/08/24 10:11:37;;;;;;;6.38;4.05;;;37.90;71.20;;;;;;5073435;28;20545;-65
2022/08/24 10:14:34;;;;;;;4.95;3.70;;;37.80;70.70;;;;;;5073003;28;20217;-64
2022/08/24 10:17:27;;;;;;;5.70;3.80;;;37.80;72.20;;;;;;5073439;28;20190;-65
2022/08/24 10:20:03;;;;;;;5.18;3.08;;;38.10;70.20;;;;;;5073312;28;20197;-64
2022/08/24 10:22:59;;;;;;;9.05;3.42;;;38.00;69.30;;;;;;5073151;28;20647;-65
2022/08/24 10:25:37;;;;;;;3.80;3.10;;;37.80;68.80;;;;;;5070163;28;20206;-64
2022/08/24 10:28:24;;;;;;;4.00;3.55;;;37.60;66.50;;;;;;5073290;28;20192;-63
2022/08/24 10:31:04;;;;;;;5.47;3.25;;;37.50;66.90;;;;;;5073475;28;20201;-63
2022/08/24 10:34:04;;;;;;;5.50;3.50;;;37.70;66.70;;;;;;5073056;28;20474;-63
2022/08/24 10:37:01;;;;;;;5.50;3.80;;;37.40;66.50;;;;;;5072634;28;20210;-63
2022/08/24 10:40:00;;;;;;;4.35;3.25;;;37.40;68.20;;;;;;5072230;28;20196;-62
2022/08/24 10:45:56;;;;;;;7.03;3.38;;;38.40;63.90;;;;;;5072587;28;20261;-63
2022/08/24 10:48:51;;;;;;;5.72;3.25;;;38.50;64.30;;;;;;5095919;22;20702;-67
2022/08/24 10:51:46;;;;;;;6.97;3.20;;;38.40;64.10;;;;;;5072768;28;20241;-67
2022/08/24 10:54:12;;;;;;;5.60;3.80;;;38.50;63.30;;;;;;5087731;28;20178;-66
2022/08/24 10:56:47;;;;;;;5.05;3.70;;;38.60;62.50;;;;;;5070640;28;20185;-66
2022/08/24 10:59:15;;;;;;;6.60;3.83;;;38.60;61.20;;;;;;5071962;28;20321;-66
2022/08/24 11:02:00;;;;;;;6.07;3.83;;;38.60;65.60;;;;;;5073322;28;20185;-67
2022/08/24 11:04:29;;;;;;;3.20;3.00;;;39.00;62.00;;;;;;5072143;28;20296;-66
2022/08/24 11:07:24;;;;;;;5.65;3.70;;;39.60;63.40;;;;;;5091892;28;20228;-66
2022/08/24 11:09:59;;;;;;;3.25;2.85;;;40.30;62.20;;;;;;5075464;28;20264;-66
2022/08/24 11:12:30;;;;;;;5.18;3.38;;;40.40;58.90;;;;;;5071517;28;20170;-66
2022/08/24 11:14:58;;;;;;;3.65;2.63;;;40.40;57.20;;;;;;5071483;28;20178;-67
2022/08/24 11:17:27;;;;;;;3.95;2.60;;;40.40;57.60;;;;;;5072196;28;20206;-66
2022/08/24 11:19:53;;;;;;;6.22;3.05;;;40.20;57.70;;;;;;5070117;28;20206;-66
2022/08/24 11:22:39;;;;;;;4.65;2.42;;;40.00;57.30;;;;;;5072228;28;20631;-66
2022/08/24 11:25:26;;;;;;;5.75;2.60;;;40.10;56.40;;;;;;5071632;28;20188;-66
2022/08/24 11:28:19;;;;;;;3.42;2.60;;;40.50;58.50;;;;;;5071924;28;20679;-66
2022/08/24 11:30:45;;;;;;;6.07;2.75;;;41.00;55.70;;;;;;5071248;28;20186;-66
2022/08/24 11:33:33;;;;;;;3.47;3.00;;;40.50;54.40;;;;;;5071714;28;20173;-67
2022/08/24 11:36:00;;;;;;;3.38;2.50;;;40.20;54.60;;;;;;5071542;28;20236;-66
2022/08/24 11:38:33;;;;;;;3.78;2.50;;;40.50;54.90;;;;;;5071814;28;20193;-66
2022/08/24 11:41:24;;;;;;;2.85;2.65;;;40.70;54.90;;;;;;5071470;28;20201;-66
2022/08/24 11:44:02;;;;;;;5.10;3.10;;;41.00;54.30;;;;;;5070005;28;20762;-66
2022/08/24 11:46:39;;;;;;;2.90;2.60;;;41.00;53.70;;;;;;5071361;28;20540;-67
2022/08/24 11:49:17;;;;;;;5.60;2.60;;;40.80;53.30;;;;;;5071816;28;20672;-66
2022/08/24 11:51:58;;;;;;;4.13;2.47;;;40.70;52.50;;;;;;5071372;28;20216;-67
2022/08/24 11:54:24;;;;;;;5.63;2.80;;;40.70;52.80;;;;;;5085620;28;20530;-66
2022/08/24 11:57:08;;;;;;;3.92;2.70;;;40.80;52.10;;;;;;5068887;28;20249;-67
2022/08/24 11:59:55;;;;;;;4.75;2.60;;;40.70;51.50;;;;;;5070174;28;20736;-66
2022/08/24 12:02:38;;;;;;;2.42;2.22;;;40.50;52.10;;;;;;5051644;28;20544;-66
2022/08/24 12:05:19;;;;;;;2.85;2.20;;;40.60;50.00;;;;;;5054206;28;20166;-67
2022/08/24 12:07:59;;;;;;;2.70;2.50;;;40.60;51.80;;;;;;5071378;28;20201;-66
2022/08/24 12:10:49;;;;;;;3.17;2.30;;;40.70;51.80;;;;;;5071383;28;20658;-66
2022/08/24 12:13:47;;;;;;;3.88;2.25;;;40.80;50.40;;;;;;5069978;28;20193;-67
2022/08/24 12:16:23;;;;;;;5.60;2.50;;;40.80;50.10;;;;;;5071006;28;20185;-67
2022/08/24 12:18:59;;;;;;;2.35;2.22;;;41.10;49.60;;;;;;5071071;28;20204;-66
2022/08/24 12:21:31;;;;;;;3.95;2.53;;;41.60;50.20;;;;;;5069857;28;20186;-66
2022/08/24 12:24:11;;;;;;;4.57;2.50;;;41.90;47.90;;;;;;5070439;28;20174;-66
2022/08/24 12:26:42;;;;;;;4.68;2.30;;;41.80;47.20;;;;;;5071004;28;20198;-66
2022/08/24 12:29:10;;;;;;;5.32;2.72;;;41.70;49.60;;;;;;5071003;28;20174;-66
2022/08/24 12:31:48;;;;;;;2.78;2.58;;;41.10;47.60;;;;;;5070804;28;20224;-66
2022/08/24 12:34:45;;;;;;;3.10;2.38;;;41.00;47.60;;;;;;5070967;28;20227;-67
2022/08/24 12:37:33;;;;;;;2.35;2.25;;;40.90;49.90;;;;;;5051428;28;20224;-66
2022/08/24 12:40:21;;;;;;;3.08;2.70;;;41.30;46.90;;;;;;5070918;28;20536;-66
2022/08/24 12:42:54;;;;;;;2.80;2.40;;;41.10;46.60;;;;;;5070727;28;20202;-66
2022/08/24 12:45:22;;;;;;;3.33;3.00;;;41.30;47.30;;;;;;5069504;28;20271;-66
2022/08/24 12:47:56;;;;;;;2.97;2.70;;;41.60;47.80;;;;;;5070533;28;20214;-66
2022/08/24 12:50:31;;;;;;;2.85;2.40;;;41.90;49.40;;;;;;5054685;28;20173;-67
2022/08/24 12:53:25;;;;;;;3.30;2.65;;;42.00;46.10;;;;;;5070859;28;20749;-66
2022/08/24 12:56:32;;;;;;;3.70;2.72;;;41.60;45.80;;;;;;5067811;28;20189;-66
2022/08/24 12:59:18;;;;;;;3.28;2.50;;;41.40;45.40;;;;;;5059868;28;20196;-66
2022/08/24 13:01:56;;;;;;;3.65;2.30;;;41.30;45.80;;;;;;5070511;28;20178;-66
2022/08/24 13:04:49;;;;;;;3.45;2.50;;;41.10;44.90;;;;;;5070385;28;20173;-66
2022/08/24 13:07:18;;;;;;;2.88;2.60;;;41.10;45.00;;;;;;5070410;28;20248;-67
2022/08/24 13:09:52;;;;;;;2.38;2.17;;;41.20;44.90;;;;;;5070399;28;20190;-66
2022/08/24 13:12:40;;;;;;;2.92;2.10;;;41.40;45.70;;;;;;5069058;28;20181;-68
2022/08/24 13:15:27;;;;;;;3.88;2.30;;;41.20;43.70;;;;;;5069168;28;20170;-67
2022/08/24 13:17:52;;;;;;;3.90;2.70;;;41.20;43.10;;;;;;5073904;28;20295;-67
2022/08/24 13:20:33;;;;;;;2.47;2.25;;;41.00;45.30;;;;;;5074391;28;20205;-67